PWSweather.com
Personal Weather Stations
Station Observations
MIKESPOST
YorkGB

YorkGB

Lat: 53.9577018, Lon: -1.0822855

Elevation: 0

Station Type: WH1081

High Low Average
Temperature 49.5°F9.7°C 32.5°F0.3°C 41.5°F5.3°C
Dew Point 48.7°F9.3°C 32.0°F0.0°C 40.9°F4.9°C
Winds 3.7 mph 6.0 kmh Calm Calm Calm SCalm S
Wind Gusts 8.1 mph13.0 kmh -- 1.0 mph1.6 kmh
Humidity 99% 96% 98%
Pressure 30.67 in1038.6 mb 30.42 in1030.1 mb -
Precipitation 0.01 in0.3 mm - -
Hour Temp Dew Point Humidity Winds Wind Gusts Pressure Precip Precip Rate Daily Precip Total
12:02 AM 33.8°F1.0°C 33.0°F0.6°C 97% Calm Calm -- 30.67 in1038.6 mb 0.00 in0.0 mm 0.00 in/hr0.0 mm/hr 0.00 in0.0 mm
12:12 AM 33.6°F0.9°C 32.9°F0.5°C 97% 0.2 mph NW0.3 kmh NW 1.0 mph1.6 kmh 30.67 in1038.6 mb 0.00 in0.0 mm 0.00 in/hr0.0 mm/hr 0.00 in0.0 mm
12:22 AM 33.4°F0.8°C 32.7°F0.4°C 97% Calm Calm -- 30.67 in1038.6 mb 0.00 in0.0 mm 0.00 in/hr0.0 mm/hr 0.00 in0.0 mm
12:32 AM 33.3°F0.7°C 32.5°F0.3°C 97% Calm Calm -- 30.67 in1038.6 mb 0.00 in0.0 mm 0.00 in/hr0.0 mm/hr 0.00 in0.0 mm
12:42 AM 33.3°F0.7°C 32.8°F0.4°C 98% Calm Calm -- 30.66 in1038.3 mb 0.00 in0.0 mm 0.00 in/hr0.0 mm/hr 0.00 in0.0 mm
12:52 AM 33.3°F0.7°C 32.8°F0.4°C 98% Calm Calm -- 30.66 in1038.3 mb 0.00 in0.0 mm 0.00 in/hr0.0 mm/hr 0.00 in0.0 mm
01:02 AM 33.1°F0.6°C 32.3°F0.2°C 97% Calm Calm -- 30.66 in1038.3 mb 0.00 in0.0 mm 0.00 in/hr0.0 mm/hr 0.00 in0.0 mm
01:12 AM 33.1°F0.6°C 32.3°F0.2°C 97% Calm Calm -- 30.66 in1038.3 mb 0.00 in0.0 mm 0.00 in/hr0.0 mm/hr 0.00 in0.0 mm
01:22 AM 33.3°F0.7°C 32.8°F0.4°C 98% 0.3 mph NNW0.5 kmh NNW 1.0 mph1.6 kmh 30.66 in1038.3 mb 0.00 in0.0 mm 0.00 in/hr0.0 mm/hr 0.00 in0.0 mm
01:32 AM 33.3°F0.7°C 32.8°F0.4°C 98% 0.3 mph NW0.5 kmh NW 1.0 mph1.6 kmh 30.66 in1038.3 mb 0.00 in0.0 mm 0.00 in/hr0.0 mm/hr 0.00 in0.0 mm
01:42 AM 33.1°F0.6°C 32.6°F0.3°C 98% 0.3 mph NW0.5 kmh NW 1.0 mph1.6 kmh 30.66 in1038.3 mb 0.00 in0.0 mm 0.00 in/hr0.0 mm/hr 0.00 in0.0 mm
01:52 AM 33.1°F0.6°C 32.6°F0.3°C 98% 0.7 mph NW1.1 kmh NW 1.0 mph1.6 kmh 30.66 in1038.3 mb 0.00 in0.0 mm 0.00 in/hr0.0 mm/hr 0.00 in0.0 mm
02:02 AM 32.7°F0.4°C 32.2°F0.1°C 98% 0.2 mph NW0.3 kmh NW 1.0 mph1.6 kmh 30.66 in1038.3 mb 0.00 in0.0 mm 0.00 in/hr0.0 mm/hr 0.00 in0.0 mm
02:12 AM 32.5°F0.3°C 32.0°F0.0°C 98% 0.2 mph N0.3 kmh N 1.0 mph1.6 kmh 30.66 in1038.3 mb 0.00 in0.0 mm 0.00 in/hr0.0 mm/hr 0.00 in0.0 mm
02:22 AM 32.9°F0.5°C 32.4°F0.2°C 98% 0.3 mph NNW0.5 kmh NNW 1.0 mph1.6 kmh 30.66 in1038.3 mb 0.00 in0.0 mm 0.00 in/hr0.0 mm/hr 0.00 in0.0 mm
02:32 AM 33.3°F0.7°C 32.8°F0.4°C 98% 0.4 mph NW0.6 kmh NW 1.0 mph1.6 kmh 30.66 in1038.3 mb 0.00 in0.0 mm 0.00 in/hr0.0 mm/hr 0.00 in0.0 mm
02:42 AM 33.3°F0.7°C 32.8°F0.4°C 98% 0.1 mph N0.2 kmh N 1.0 mph1.6 kmh 30.66 in1038.3 mb 0.00 in0.0 mm 0.00 in/hr0.0 mm/hr 0.00 in0.0 mm
02:52 AM 33.4°F0.8°C 32.9°F0.5°C 98% 0.2 mph NW0.3 kmh NW 1.0 mph1.6 kmh 30.66 in1038.3 mb 0.00 in0.0 mm 0.00 in/hr0.0 mm/hr 0.00 in0.0 mm
03:02 AM 33.4°F0.8°C 32.9°F0.5°C 98% 0.1 mph NW0.2 kmh NW 1.0 mph1.6 kmh 30.66 in1038.3 mb 0.00 in0.0 mm 0.00 in/hr0.0 mm/hr 0.00 in0.0 mm
03:12 AM 33.1°F0.6°C 32.6°F0.3°C 98% Calm Calm -- 30.66 in1038.3 mb 0.00 in0.0 mm 0.00 in/hr0.0 mm/hr 0.00 in0.0 mm
03:22 AM 33.1°F0.6°C 32.6°F0.3°C 98% 0.3 mph NNW0.5 kmh NNW 1.0 mph1.6 kmh 30.65 in1037.9 mb 0.00 in0.0 mm 0.00 in/hr0.0 mm/hr 0.00 in0.0 mm
03:32 AM 32.9°F0.5°C 32.4°F0.2°C 98% 0.2 mph NNW0.3 kmh NNW 1.0 mph1.6 kmh 30.65 in1037.9 mb 0.00 in0.0 mm 0.00 in/hr0.0 mm/hr 0.00 in0.0 mm
03:42 AM 32.9°F0.5°C 32.4°F0.2°C 98% 0.4 mph NNW0.6 kmh NNW 1.0 mph1.6 kmh 30.65 in1037.9 mb 0.00 in0.0 mm 0.00 in/hr0.0 mm/hr 0.00 in0.0 mm
03:52 AM 32.7°F0.4°C 32.2°F0.1°C 98% 0.2 mph NW0.3 kmh NW 1.0 mph1.6 kmh 30.64 in1037.6 mb 0.00 in0.0 mm 0.00 in/hr0.0 mm/hr 0.00 in0.0 mm
04:02 AM 32.7°F0.4°C 32.2°F0.1°C 98% 0.4 mph N0.6 kmh N 1.0 mph1.6 kmh 30.64 in1037.6 mb 0.00 in0.0 mm 0.00 in/hr0.0 mm/hr 0.00 in0.0 mm
04:12 AM 32.9°F0.5°C 32.4°F0.2°C 98% 0.3 mph N0.5 kmh N 1.0 mph1.6 kmh 30.64 in1037.6 mb 0.00 in0.0 mm 0.00 in/hr0.0 mm/hr 0.00 in0.0 mm
04:22 AM 32.9°F0.5°C 32.4°F0.2°C 98% 0.2 mph NNW0.3 kmh NNW 1.0 mph1.6 kmh 30.64 in1037.6 mb 0.00 in0.0 mm 0.00 in/hr0.0 mm/hr 0.00 in0.0 mm
04:32 AM 32.5°F0.3°C 32.0°F0.0°C 98% 0.2 mph NNW0.3 kmh NNW 1.0 mph1.6 kmh 30.64 in1037.6 mb 0.00 in0.0 mm 0.00 in/hr0.0 mm/hr 0.00 in0.0 mm
04:42 AM 32.5°F0.3°C 32.0°F0.0°C 98% 0.3 mph NW0.5 kmh NW 1.0 mph1.6 kmh 30.64 in1037.6 mb 0.00 in0.0 mm 0.00 in/hr0.0 mm/hr 0.00 in0.0 mm
04:52 AM 32.5°F0.3°C 32.0°F0.0°C 98% Calm Calm -- 30.64 in1037.6 mb 0.00 in0.0 mm 0.00 in/hr0.0 mm/hr 0.00 in0.0 mm
05:02 AM 32.7°F0.4°C 32.5°F0.3°C 99% 0.3 mph N0.5 kmh N 1.0 mph1.6 kmh 30.65 in1037.9 mb 0.00 in0.0 mm 0.00 in/hr0.0 mm/hr 0.00 in0.0 mm
05:12 AM 33.1°F0.6°C 32.8°F0.4°C 99% 0.4 mph NNW0.6 kmh NNW 1.0 mph1.6 kmh 30.64 in1037.6 mb 0.00 in0.0 mm 0.00 in/hr0.0 mm/hr 0.00 in0.0 mm
05:22 AM 33.6°F0.9°C 33.4°F0.8°C 99% 0.4 mph N0.6 kmh N 1.0 mph1.6 kmh 30.65 in1037.9 mb 0.00 in0.0 mm 0.00 in/hr0.0 mm/hr 0.00 in0.0 mm
05:32 AM 34.2°F1.2°C 33.9°F1.1°C 99% 0.1 mph NW0.2 kmh NW 1.0 mph1.6 kmh 30.65 in1037.9 mb 0.00 in0.0 mm 0.00 in/hr0.0 mm/hr 0.00 in0.0 mm
05:42 AM 34.5°F1.4°C 34.3°F1.3°C 99% 0.3 mph NW0.5 kmh NW 1.0 mph1.6 kmh 30.65 in1037.9 mb 0.00 in0.0 mm 0.00 in/hr0.0 mm/hr 0.00 in0.0 mm
05:52 AM 34.9°F1.6°C 34.6°F1.4°C 99% 0.8 mph NNW1.3 kmh NNW 1.0 mph1.6 kmh 30.65 in1037.9 mb 0.00 in0.0 mm 0.00 in/hr0.0 mm/hr 0.00 in0.0 mm
06:02 AM 35.2°F1.8°C 35.0°F1.7°C 99% 0.2 mph NW0.3 kmh NW 1.0 mph1.6 kmh 30.65 in1037.9 mb 0.00 in0.0 mm 0.00 in/hr0.0 mm/hr 0.00 in0.0 mm
06:12 AM 35.4°F1.9°C 35.2°F1.8°C 99% 0.5 mph NNW0.8 kmh NNW 1.0 mph1.6 kmh 30.65 in1037.9 mb 0.00 in0.0 mm 0.00 in/hr0.0 mm/hr 0.00 in0.0 mm
06:22 AM 35.6°F2.0°C 35.3°F1.8°C 99% 0.2 mph NW0.3 kmh NW 1.0 mph1.6 kmh 30.65 in1037.9 mb 0.00 in0.0 mm 0.00 in/hr0.0 mm/hr 0.00 in0.0 mm
06:32 AM 35.8°F2.1°C 35.5°F1.9°C 99% 0.5 mph NW0.8 kmh NW 1.0 mph1.6 kmh 30.64 in1037.6 mb 0.00 in0.0 mm 0.00 in/hr0.0 mm/hr 0.00 in0.0 mm
06:42 AM 36.0°F2.2°C 35.7°F2.1°C 99% 0.4 mph NW0.6 kmh NW 1.0 mph1.6 kmh 30.65 in1037.9 mb 0.00 in0.0 mm 0.00 in/hr0.0 mm/hr 0.00 in0.0 mm
06:52 AM 36.1°F2.3°C 35.9°F2.2°C 99% Calm Calm -- 30.65 in1037.9 mb 0.00 in0.0 mm 0.00 in/hr0.0 mm/hr 0.00 in0.0 mm
07:02 AM 36.3°F2.4°C 36.1°F2.3°C 99% 0.2 mph N0.3 kmh N 1.0 mph1.6 kmh 30.65 in1037.9 mb 0.00 in0.0 mm 0.00 in/hr0.0 mm/hr 0.00 in0.0 mm
07:12 AM 36.7°F2.6°C 36.4°F2.4°C 99% Calm Calm -- 30.65 in1037.9 mb 0.00 in0.0 mm 0.00 in/hr0.0 mm/hr 0.00 in0.0 mm
07:22 AM 36.9°F2.7°C 36.6°F2.6°C 99% Calm Calm -- 30.65 in1037.9 mb 0.00 in0.0 mm 0.00 in/hr0.0 mm/hr 0.00 in0.0 mm
07:32 AM 37.0°F2.8°C 36.8°F2.7°C 99% Calm Calm -- 30.65 in1037.9 mb 0.00 in0.0 mm 0.00 in/hr0.0 mm/hr 0.00 in0.0 mm
07:42 AM 37.2°F2.9°C 37.0°F2.8°C 99% 0.2 mph N0.3 kmh N 1.0 mph1.6 kmh 30.65 in1037.9 mb 0.00 in0.0 mm 0.00 in/hr0.0 mm/hr 0.00 in0.0 mm
07:52 AM 37.4°F3.0°C 37.1°F2.8°C 99% 0.4 mph NNW0.6 kmh NNW 1.0 mph1.6 kmh 30.64 in1037.6 mb 0.00 in0.0 mm 0.00 in/hr0.0 mm/hr 0.00 in0.0 mm
08:02 AM 37.6°F3.1°C 37.3°F2.9°C 99% 0.8 mph NW1.3 kmh NW 1.0 mph1.6 kmh 30.64 in1037.6 mb 0.00 in0.0 mm 0.00 in/hr0.0 mm/hr 0.00 in0.0 mm
08:12 AM 37.8°F3.2°C 37.5°F3.1°C 99% 0.3 mph NW0.5 kmh NW 1.0 mph1.6 kmh 30.65 in1037.9 mb 0.00 in0.0 mm 0.00 in/hr0.0 mm/hr 0.00 in0.0 mm
08:22 AM 37.9°F3.3°C 37.7°F3.2°C 99% 0.6 mph NW1.0 kmh NW 1.0 mph1.6 kmh 30.65 in1037.9 mb 0.00 in0.0 mm 0.00 in/hr0.0 mm/hr 0.00 in0.0 mm
08:32 AM 38.1°F3.4°C 37.9°F3.3°C 99% Calm Calm -- 30.65 in1037.9 mb 0.00 in0.0 mm 0.00 in/hr0.0 mm/hr 0.00 in0.0 mm
08:42 AM 38.3°F3.5°C 38.0°F3.3°C 99% 0.3 mph NW0.5 kmh NW 1.0 mph1.6 kmh 30.65 in1037.9 mb 0.00 in0.0 mm 0.00 in/hr0.0 mm/hr 0.00 in0.0 mm
08:52 AM 38.5°F3.6°C 38.2°F3.4°C 99% Calm Calm -- 30.64 in1037.6 mb 0.00 in0.0 mm 0.00 in/hr0.0 mm/hr 0.00 in0.0 mm
09:02 AM 38.5°F3.6°C 38.2°F3.4°C 99% Calm Calm -- 30.64 in1037.6 mb 0.00 in0.0 mm 0.00 in/hr0.0 mm/hr 0.00 in0.0 mm
09:12 AM 38.7°F3.7°C 38.4°F3.6°C 99% 0.3 mph N0.5 kmh N 1.0 mph1.6 kmh 30.65 in1037.9 mb 0.00 in0.0 mm 0.00 in/hr0.0 mm/hr 0.00 in0.0 mm
09:22 AM 38.8°F3.8°C 38.6°F3.7°C 99% 0.4 mph NW0.6 kmh NW 1.0 mph1.6 kmh 30.64 in1037.6 mb 0.00 in0.0 mm 0.00 in/hr0.0 mm/hr 0.00 in0.0 mm
09:32 AM 38.8°F3.8°C 38.6°F3.7°C 99% 0.6 mph NNW1.0 kmh NNW 1.0 mph1.6 kmh 30.64 in1037.6 mb 0.00 in0.0 mm 0.00 in/hr0.0 mm/hr 0.00 in0.0 mm
09:42 AM 39.0°F3.9°C 38.8°F3.8°C 99% 0.2 mph N0.3 kmh N 1.0 mph1.6 kmh 30.64 in1037.6 mb 0.00 in0.0 mm 0.00 in/hr0.0 mm/hr 0.00 in0.0 mm
09:52 AM 39.4°F4.1°C 39.1°F3.9°C 99% 0.3 mph NW0.5 kmh NW 1.0 mph1.6 kmh 30.64 in1037.6 mb 0.00 in0.0 mm 0.00 in/hr0.0 mm/hr 0.00 in0.0 mm
10:02 AM 39.7°F4.3°C 39.5°F4.2°C 99% Calm Calm -- 30.63 in1037.3 mb 0.00 in0.0 mm 0.00 in/hr0.0 mm/hr 0.00 in0.0 mm
10:12 AM 39.9°F4.4°C 39.7°F4.3°C 99% 0.4 mph NW0.6 kmh NW 1.0 mph1.6 kmh 30.63 in1037.3 mb 0.00 in0.0 mm 0.00 in/hr0.0 mm/hr 0.00 in0.0 mm
10:22 AM 40.1°F4.5°C 39.8°F4.3°C 99% 0.7 mph NW1.1 kmh NW 1.0 mph1.6 kmh 30.63 in1037.3 mb 0.00 in0.0 mm 0.00 in/hr0.0 mm/hr 0.00 in0.0 mm
10:32 AM 40.3°F4.6°C 39.8°F4.3°C 98% 0.5 mph NW0.8 kmh NW 1.0 mph1.6 kmh 30.63 in1037.3 mb 0.00 in0.0 mm 0.00 in/hr0.0 mm/hr 0.00 in0.0 mm
10:42 AM 40.8°F4.9°C 40.3°F4.6°C 98% 0.5 mph NW0.8 kmh NW 1.0 mph1.6 kmh 30.63 in1037.3 mb 0.00 in0.0 mm 0.00 in/hr0.0 mm/hr 0.00 in0.0 mm
10:52 AM 41.2°F5.1°C 40.7°F4.8°C 98% 0.1 mph NW0.2 kmh NW 1.0 mph1.6 kmh 30.62 in1036.9 mb 0.00 in0.0 mm 0.00 in/hr0.0 mm/hr 0.00 in0.0 mm
11:02 AM 41.5°F5.3°C 41.0°F5.0°C 98% 0.3 mph NW0.5 kmh NW 1.0 mph1.6 kmh 30.61 in1036.6 mb 0.00 in0.0 mm 0.00 in/hr0.0 mm/hr 0.00 in0.0 mm
11:12 AM 42.1°F5.6°C 41.6°F5.3°C 98% 0.1 mph NW0.2 kmh NW 1.0 mph1.6 kmh 30.61 in1036.6 mb 0.00 in0.0 mm 0.00 in/hr0.0 mm/hr 0.00 in0.0 mm
11:22 AM 42.6°F5.9°C 42.1°F5.6°C 98% Calm Calm -- 30.61 in1036.6 mb 0.00 in0.0 mm 0.00 in/hr0.0 mm/hr 0.00 in0.0 mm
11:32 AM 42.8°F6.0°C 42.3°F5.7°C 98% Calm Calm -- 30.61 in1036.6 mb 0.00 in0.0 mm 0.00 in/hr0.0 mm/hr 0.00 in0.0 mm
11:42 AM 43.2°F6.2°C 42.6°F5.9°C 98% 0.4 mph NW0.6 kmh NW 1.0 mph1.6 kmh 30.60 in1036.2 mb 0.00 in0.0 mm 0.00 in/hr0.0 mm/hr 0.00 in0.0 mm
11:52 AM 43.3°F6.3°C 42.5°F5.8°C 97% 0.5 mph NW0.8 kmh NW 1.0 mph1.6 kmh 30.59 in1035.9 mb 0.00 in0.0 mm 0.00 in/hr0.0 mm/hr 0.00 in0.0 mm
12:02 PM 43.3°F6.3°C 42.5°F5.8°C 97% 0.5 mph WNW0.8 kmh WNW 1.0 mph1.6 kmh 30.59 in1035.9 mb 0.00 in0.0 mm 0.00 in/hr0.0 mm/hr 0.00 in0.0 mm
12:12 PM 43.5°F6.4°C 42.5°F5.8°C 96% 0.5 mph N0.8 kmh N 1.0 mph1.6 kmh 30.59 in1035.9 mb 0.00 in0.0 mm 0.00 in/hr0.0 mm/hr 0.00 in0.0 mm
12:22 PM 43.7°F6.5°C 42.6°F5.9°C 96% 0.2 mph NW0.3 kmh NW 1.0 mph1.6 kmh 30.58 in1035.6 mb 0.00 in0.0 mm 0.00 in/hr0.0 mm/hr 0.00 in0.0 mm
12:32 PM 43.9°F6.6°C 42.8°F6.0°C 96% 0.6 mph NW1.0 kmh NW 1.0 mph1.6 kmh 30.58 in1035.6 mb 0.00 in0.0 mm 0.00 in/hr0.0 mm/hr 0.00 in0.0 mm
12:42 PM 43.9°F6.6°C 42.8°F6.0°C 96% 0.2 mph WNW0.3 kmh WNW 1.0 mph1.6 kmh 30.58 in1035.6 mb 0.00 in0.0 mm 0.00 in/hr0.0 mm/hr 0.00 in0.0 mm
12:52 PM 43.9°F6.6°C 42.8°F6.0°C 96% 0.3 mph NW0.5 kmh NW 1.0 mph1.6 kmh 30.58 in1035.6 mb 0.00 in0.0 mm 0.00 in/hr0.0 mm/hr 0.00 in0.0 mm
01:02 PM 44.1°F6.7°C 43.0°F6.1°C 96% 0.1 mph NW0.2 kmh NW 1.0 mph1.6 kmh 30.57 in1035.2 mb 0.00 in0.0 mm 0.00 in/hr0.0 mm/hr 0.00 in0.0 mm
01:12 PM 44.2°F6.8°C 43.2°F6.2°C 96% Calm Calm 1.0 mph1.6 kmh 30.57 in1035.2 mb 0.00 in0.0 mm 0.00 in/hr0.0 mm/hr 0.00 in0.0 mm
01:22 PM 44.4°F6.9°C 43.4°F6.3°C 96% Calm Calm -- 30.56 in1034.9 mb 0.00 in0.0 mm 0.00 in/hr0.0 mm/hr 0.00 in0.0 mm
01:32 PM 44.6°F7.0°C 43.5°F6.4°C 96% Calm Calm -- 30.56 in1034.9 mb 0.00 in0.0 mm 0.00 in/hr0.0 mm/hr 0.00 in0.0 mm
01:42 PM 44.8°F7.1°C 43.7°F6.5°C 96% Calm Calm -- 30.56 in1034.9 mb 0.00 in0.0 mm 0.00 in/hr0.0 mm/hr 0.00 in0.0 mm
01:52 PM 45.0°F7.2°C 43.9°F6.6°C 96% Calm Calm -- 30.56 in1034.9 mb 0.00 in0.0 mm 0.00 in/hr0.0 mm/hr 0.00 in0.0 mm
02:02 PM 45.1°F7.3°C 44.1°F6.7°C 96% Calm Calm -- 30.55 in1034.5 mb 0.00 in0.0 mm 0.00 in/hr0.0 mm/hr 0.00 in0.0 mm
02:12 PM 45.3°F7.4°C 44.2°F6.8°C 96% Calm Calm -- 30.56 in1034.9 mb 0.00 in0.0 mm 0.00 in/hr0.0 mm/hr 0.00 in0.0 mm
02:22 PM 45.3°F7.4°C 44.2°F6.8°C 96% Calm Calm -- 30.55 in1034.5 mb 0.00 in0.0 mm 0.00 in/hr0.0 mm/hr 0.00 in0.0 mm
02:32 PM 45.5°F7.5°C 44.4°F6.9°C 96% Calm Calm -- 30.55 in1034.5 mb 0.00 in0.0 mm 0.00 in/hr0.0 mm/hr 0.00 in0.0 mm
02:42 PM 45.7°F7.6°C 44.6°F7.0°C 96% Calm Calm -- 30.54 in1034.2 mb 0.00 in0.0 mm 0.00 in/hr0.0 mm/hr 0.00 in0.0 mm
02:52 PM 45.7°F7.6°C 44.6°F7.0°C 96% Calm Calm -- 30.54 in1034.2 mb 0.00 in0.0 mm 0.00 in/hr0.0 mm/hr 0.00 in0.0 mm
03:02 PM 45.7°F7.6°C 44.6°F7.0°C 96% Calm Calm -- 30.53 in1033.9 mb 0.00 in0.0 mm 0.00 in/hr0.0 mm/hr 0.00 in0.0 mm
03:12 PM 45.7°F7.6°C 44.6°F7.0°C 96% Calm Calm -- 30.54 in1034.2 mb 0.00 in0.0 mm 0.00 in/hr0.0 mm/hr 0.00 in0.0 mm
03:22 PM 45.9°F7.7°C 44.8°F7.1°C 96% Calm Calm -- 30.53 in1033.9 mb 0.00 in0.0 mm 0.00 in/hr0.0 mm/hr 0.00 in0.0 mm
03:32 PM 45.9°F7.7°C 44.8°F7.1°C 96% Calm Calm -- 30.53 in1033.9 mb 0.00 in0.0 mm 0.00 in/hr0.0 mm/hr 0.00 in0.0 mm
03:42 PM 46.0°F7.8°C 45.0°F7.2°C 96% Calm Calm -- 30.53 in1033.9 mb 0.00 in0.0 mm 0.00 in/hr0.0 mm/hr 0.00 in0.0 mm
03:52 PM 46.0°F7.8°C 45.0°F7.2°C 96% Calm Calm -- 30.52 in1033.5 mb 0.00 in0.0 mm 0.00 in/hr0.0 mm/hr 0.00 in0.0 mm
04:02 PM 46.0°F7.8°C 45.2°F7.3°C 97% Calm Calm -- 30.52 in1033.5 mb 0.00 in0.0 mm 0.00 in/hr0.0 mm/hr 0.00 in0.0 mm
04:12 PM 46.2°F7.9°C 45.4°F7.4°C 97% Calm Calm -- 30.52 in1033.5 mb 0.00 in0.0 mm 0.00 in/hr0.0 mm/hr 0.00 in0.0 mm
04:22 PM 46.2°F7.9°C 45.4°F7.4°C 97% Calm Calm -- 30.51 in1033.2 mb 0.00 in0.0 mm 0.00 in/hr0.0 mm/hr 0.00 in0.0 mm
04:32 PM 46.2°F7.9°C 45.4°F7.4°C 97% Calm Calm -- 30.51 in1033.2 mb 0.00 in0.0 mm 0.00 in/hr0.0 mm/hr 0.00 in0.0 mm
04:42 PM 46.4°F8.0°C 45.6°F7.6°C 97% Calm Calm -- 30.51 in1033.2 mb 0.00 in0.0 mm 0.00 in/hr0.0 mm/hr 0.00 in0.0 mm
04:52 PM 46.4°F8.0°C 45.6°F7.6°C 97% Calm Calm -- 30.51 in1033.2 mb 0.00 in0.0 mm 0.00 in/hr0.0 mm/hr 0.00 in0.0 mm
05:02 PM 46.4°F8.0°C 45.6°F7.6°C 97% Calm Calm -- 30.51 in1033.2 mb 0.00 in0.0 mm 0.00 in/hr0.0 mm/hr 0.00 in0.0 mm
05:12 PM 46.4°F8.0°C 45.6°F7.6°C 97% 0.3 mph S0.5 kmh S 3.4 mph5.5 kmh 30.51 in1033.2 mb 0.00 in0.0 mm 0.00 in/hr0.0 mm/hr 0.00 in0.0 mm
05:22 PM 46.4°F8.0°C 45.6°F7.6°C 97% 0.3 mph NNW0.5 kmh NNW 2.3 mph3.7 kmh 30.51 in1033.2 mb 0.00 in0.0 mm 0.00 in/hr0.0 mm/hr 0.00 in0.0 mm
05:32 PM 46.6°F8.1°C 46.0°F7.8°C 98% 0.4 mph NW0.6 kmh NW 2.3 mph3.7 kmh 30.50 in1032.8 mb 0.00 in0.0 mm 0.00 in/hr0.0 mm/hr 0.00 in0.0 mm
05:42 PM 47.3°F8.5°C 46.8°F8.2°C 98% 0.6 mph S1.0 kmh S 3.4 mph5.5 kmh 30.50 in1032.8 mb 0.00 in0.0 mm 0.00 in/hr0.0 mm/hr 0.00 in0.0 mm
05:52 PM 47.7°F8.7°C 47.1°F8.4°C 98% 0.5 mph SW0.8 kmh SW 3.4 mph5.5 kmh 30.49 in1032.5 mb 0.00 in0.0 mm 0.00 in/hr0.0 mm/hr 0.00 in0.0 mm
06:02 PM 48.2°F9.0°C 47.7°F8.7°C 98% 2.1 mph NW3.4 kmh NW 6.7 mph10.8 kmh 30.49 in1032.5 mb 0.00 in0.0 mm 0.00 in/hr0.0 mm/hr 0.00 in0.0 mm
06:12 PM 48.2°F9.0°C 47.7°F8.7°C 98% Calm Calm -- 30.49 in1032.5 mb 0.00 in0.0 mm 0.00 in/hr0.0 mm/hr 0.00 in0.0 mm
06:22 PM 48.6°F9.2°C 48.0°F8.9°C 98% 1.3 mph SE2.1 kmh SE 6.7 mph10.8 kmh 30.49 in1032.5 mb 0.00 in0.0 mm 0.00 in/hr0.0 mm/hr 0.00 in0.0 mm
06:32 PM 48.9°F9.4°C 48.4°F9.1°C 98% 2.6 mph WSW4.2 kmh WSW 5.7 mph9.2 kmh 30.48 in1032.2 mb 0.00 in0.0 mm 0.00 in/hr0.0 mm/hr 0.00 in0.0 mm
06:42 PM 49.1°F9.5°C 48.6°F9.2°C 98% 2.1 mph WSW3.4 kmh WSW 5.7 mph9.2 kmh 30.48 in1032.2 mb 0.00 in0.0 mm 0.00 in/hr0.0 mm/hr 0.00 in0.0 mm
06:52 PM 49.3°F9.6°C 48.5°F9.2°C 97% 3.7 mph SW6.0 kmh SW 8.1 mph13.0 kmh 30.48 in1032.2 mb 0.00 in0.0 mm 0.00 in/hr0.0 mm/hr 0.00 in0.0 mm
07:02 PM 49.5°F9.7°C 48.6°F9.2°C 97% 3.2 mph NW5.1 kmh NW 6.7 mph10.8 kmh 30.48 in1032.2 mb 0.00 in0.0 mm 0.00 in/hr0.0 mm/hr 0.00 in0.0 mm
07:12 PM 49.3°F9.6°C 48.2°F9.0°C 96% 0.4 mph WNW0.6 kmh WNW 1.0 mph1.6 kmh 30.47 in1031.8 mb 0.00 in0.0 mm 0.00 in/hr0.0 mm/hr 0.00 in0.0 mm
07:22 PM 49.3°F9.6°C 48.2°F9.0°C 96% 1.1 mph WNW1.8 kmh WNW 5.7 mph9.2 kmh 30.47 in1031.8 mb 0.00 in0.0 mm 0.00 in/hr0.0 mm/hr 0.00 in0.0 mm
07:32 PM 49.3°F9.6°C 48.2°F9.0°C 96% 0.8 mph WNW1.3 kmh WNW 3.4 mph5.5 kmh 30.47 in1031.8 mb 0.00 in0.0 mm 0.00 in/hr0.0 mm/hr 0.00 in0.0 mm
07:42 PM 49.3°F9.6°C 48.2°F9.0°C 96% 0.7 mph NNW1.1 kmh NNW 1.0 mph1.6 kmh 30.47 in1031.8 mb 0.00 in0.0 mm 0.00 in/hr0.0 mm/hr 0.00 in0.0 mm
07:52 PM 49.1°F9.5°C 48.0°F8.9°C 96% 0.8 mph S1.3 kmh S 2.3 mph3.7 kmh 30.47 in1031.8 mb 0.00 in0.0 mm 0.00 in/hr0.0 mm/hr 0.00 in0.0 mm
08:02 PM 49.1°F9.5°C 48.0°F8.9°C 96% 0.6 mph SW1.0 kmh SW 5.7 mph9.2 kmh 30.47 in1031.8 mb 0.00 in0.0 mm 0.00 in/hr0.0 mm/hr 0.00 in0.0 mm
08:12 PM 49.3°F9.6°C 48.2°F9.0°C 96% 1.8 mph NW2.9 kmh NW 5.7 mph9.2 kmh 30.46 in1031.5 mb 0.00 in0.0 mm 0.00 in/hr0.0 mm/hr 0.00 in0.0 mm
08:22 PM 49.3°F9.6°C 48.5°F9.2°C 97% 0.8 mph W1.3 kmh W 2.3 mph3.7 kmh 30.46 in1031.5 mb 0.00 in0.0 mm 0.00 in/hr0.0 mm/hr 0.00 in0.0 mm
08:32 PM 49.3°F9.6°C 48.2°F9.0°C 96% 0.2 mph ESE0.3 kmh ESE 1.0 mph1.6 kmh 30.45 in1031.2 mb 0.00 in0.0 mm 0.00 in/hr0.0 mm/hr 0.00 in0.0 mm
08:42 PM 49.3°F9.6°C 48.2°F9.0°C 96% 0.5 mph WSW0.8 kmh WSW 2.3 mph3.7 kmh 30.46 in1031.5 mb 0.00 in0.0 mm 0.00 in/hr0.0 mm/hr 0.00 in0.0 mm
08:52 PM 49.1°F9.5°C 48.0°F8.9°C 96% 0.1 mph S0.2 kmh S 1.0 mph1.6 kmh 30.46 in1031.5 mb 0.00 in0.0 mm 0.00 in/hr0.0 mm/hr 0.00 in0.0 mm
09:02 PM 49.1°F9.5°C 48.3°F9.1°C 97% 0.5 mph SSW0.8 kmh SSW 4.7 mph7.6 kmh 30.45 in1031.2 mb 0.00 in0.0 mm 0.00 in/hr0.0 mm/hr 0.00 in0.0 mm
09:12 PM 49.3°F9.6°C 48.5°F9.2°C 97% 1.2 mph WSW1.9 kmh WSW 2.3 mph3.7 kmh 30.45 in1031.2 mb 0.00 in0.0 mm 0.00 in/hr0.0 mm/hr 0.00 in0.0 mm
09:22 PM 49.3°F9.6°C 48.5°F9.2°C 97% 2.4 mph W3.9 kmh W 6.7 mph10.8 kmh 30.45 in1031.2 mb 0.00 in0.0 mm 0.00 in/hr0.0 mm/hr 0.00 in0.0 mm
09:32 PM 49.5°F9.7°C 48.6°F9.2°C 97% 1.7 mph NW2.7 kmh NW 5.7 mph9.2 kmh 30.45 in1031.2 mb 0.00 in0.0 mm 0.00 in/hr0.0 mm/hr 0.00 in0.0 mm
09:42 PM 49.5°F9.7°C 48.6°F9.2°C 97% 0.7 mph WNW1.1 kmh WNW 1.0 mph1.6 kmh 30.44 in1030.8 mb 0.00 in0.0 mm 0.00 in/hr0.0 mm/hr 0.00 in0.0 mm
09:52 PM 49.3°F9.6°C 48.5°F9.2°C 97% 0.6 mph WSW1.0 kmh WSW 2.3 mph3.7 kmh 30.44 in1030.8 mb 0.00 in0.0 mm 0.00 in/hr0.0 mm/hr 0.00 in0.0 mm
10:02 PM 49.1°F9.5°C 48.3°F9.1°C 97% Calm Calm -- 30.44 in1030.8 mb 0.00 in0.0 mm 0.00 in/hr0.0 mm/hr 0.00 in0.0 mm
10:12 PM 49.1°F9.5°C 48.3°F9.1°C 97% 0.2 mph N0.3 kmh N 1.0 mph1.6 kmh 30.44 in1030.8 mb 0.00 in0.0 mm 0.00 in/hr0.0 mm/hr 0.00 in0.0 mm
10:22 PM 49.1°F9.5°C 48.6°F9.2°C 98% 0.3 mph ESE0.5 kmh ESE 1.0 mph1.6 kmh 30.43 in1030.5 mb 0.00 in0.0 mm 0.00 in/hr0.0 mm/hr 0.00 in0.0 mm
10:32 PM 49.3°F9.6°C 48.7°F9.3°C 98% 0.8 mph SW1.3 kmh SW 2.3 mph3.7 kmh 30.43 in1030.5 mb 0.00 in0.0 mm 0.00 in/hr0.0 mm/hr 0.00 in0.0 mm
10:42 PM 49.3°F9.6°C 48.7°F9.3°C 98% 0.7 mph S1.1 kmh S 3.4 mph5.5 kmh 30.43 in1030.5 mb 0.00 in0.0 mm 0.00 in/hr0.0 mm/hr 0.00 in0.0 mm
10:52 PM 49.3°F9.6°C 48.7°F9.3°C 98% 0.2 mph NE0.3 kmh NE 2.3 mph3.7 kmh 30.42 in1030.1 mb 0.00 in0.0 mm 0.00 in/hr0.0 mm/hr 0.00 in0.0 mm
11:02 PM 49.3°F9.6°C 48.7°F9.3°C 98% 0.8 mph SSE1.3 kmh SSE 4.7 mph7.6 kmh 30.42 in1030.1 mb 0.00 in0.0 mm 0.00 in/hr0.0 mm/hr 0.00 in0.0 mm
11:12 PM 49.3°F9.6°C 48.7°F9.3°C 98% 0.7 mph SSE1.1 kmh SSE 3.4 mph5.5 kmh 30.42 in1030.1 mb 0.01 in0.3 mm 0.06 in/hr1.5 mm/hr 0.01 in0.3 mm
11:22 PM 49.3°F9.6°C 48.7°F9.3°C 98% 0.4 mph NNW0.6 kmh NNW 1.0 mph1.6 kmh 30.42 in1030.1 mb 0.01 in0.3 mm 0.00 in/hr0.0 mm/hr 0.01 in0.3 mm
11:32 PM 49.3°F9.6°C 48.7°F9.3°C 98% 0.4 mph SW0.6 kmh SW 1.0 mph1.6 kmh 30.42 in1030.1 mb 0.01 in0.3 mm 0.00 in/hr0.0 mm/hr 0.01 in0.3 mm
11:42 PM 49.3°F9.6°C 48.7°F9.3°C 98% 0.2 mph S0.3 kmh S 1.0 mph1.6 kmh 30.41 in1029.8 mb 0.01 in0.3 mm 0.00 in/hr0.0 mm/hr 0.01 in0.3 mm
11:52 PM 49.3°F9.6°C 48.7°F9.3°C 98% Calm Calm -- 30.40 in1029.5 mb 0.01 in0.3 mm 0.00 in/hr0.0 mm/hr 0.01 in0.3 mm